sensor_id;sensor_type;location;lat;lon;timestamp;temperature;humidity
24814;DHT22;12904;50.088;11.414;2022-12-08T00:00:50;2.70;99.90
24814;DHT22;12904;50.088;11.414;2022-12-08T00:03:16;2.70;99.90
24814;DHT22;12904;50.088;11.414;2022-12-08T00:05:46;2.70;99.90
24814;DHT22;12904;50.088;11.414;2022-12-08T00:08:31;2.70;99.90
24814;DHT22;12904;50.088;11.414;2022-12-08T00:11:16;2.70;99.90
24814;DHT22;12904;50.088;11.414;2022-12-08T00:13:42;2.70;99.90
24814;DHT22;12904;50.088;11.414;2022-12-08T00:16:08;2.80;99.90
24814;DHT22;12904;50.088;11.414;2022-12-08T00:18:34;2.80;99.90
24814;DHT22;12904;50.088;11.414;2022-12-08T00:20:59;2.80;99.90
24814;DHT22;12904;50.088;11.414;2022-12-08T00:23:25;2.80;99.90
24814;DHT22;12904;50.088;11.414;2022-12-08T00:25:52;2.80;99.90
24814;DHT22;12904;50.088;11.414;2022-12-08T00:28:17;2.80;99.90
24814;DHT22;12904;50.088;11.414;2022-12-08T00:30:43;2.80;99.90
24814;DHT22;12904;50.088;11.414;2022-12-08T00:33:10;2.80;99.90
24814;DHT22;12904;50.088;11.414;2022-12-08T00:35:36;2.90;99.90
24814;DHT22;12904;50.088;11.414;2022-12-08T00:38:02;2.80;99.90
24814;DHT22;12904;50.088;11.414;2022-12-08T00:40:28;2.90;99.90
24814;DHT22;12904;50.088;11.414;2022-12-08T00:42:53;2.90;99.90
24814;DHT22;12904;50.088;11.414;2022-12-08T00:45:19;2.80;99.90
24814;DHT22;12904;50.088;11.414;2022-12-08T00:47:44;2.80;99.90
24814;DHT22;12904;50.088;11.414;2022-12-08T00:50:10;2.80;99.90
24814;DHT22;12904;50.088;11.414;2022-12-08T00:52:36;2.80;99.90
24814;DHT22;12904;50.088;11.414;2022-12-08T00:55:03;2.80;99.90
24814;DHT22;12904;50.088;11.414;2022-12-08T00:57:29;2.80;99.90
24814;DHT22;12904;50.088;11.414;2022-12-08T00:59:55;2.80;99.90
24814;DHT22;12904;50.088;11.414;2022-12-08T01:02:22;2.80;99.90
24814;DHT22;12904;50.088;11.414;2022-12-08T01:04:47;2.80;99.90
24814;DHT22;12904;50.088;11.414;2022-12-08T01:07:13;2.70;99.90
24814;DHT22;12904;50.088;11.414;2022-12-08T01:09:39;2.70;99.90
24814;DHT22;12904;50.088;11.414;2022-12-08T01:12:05;2.60;99.90
24814;DHT22;12904;50.088;11.414;2022-12-08T01:14:31;2.60;99.90
24814;DHT22;12904;50.088;11.414;2022-12-08T01:16:56;2.60;99.90
24814;DHT22;12904;50.088;11.414;2022-12-08T01:19:22;2.60;99.90
24814;DHT22;12904;50.088;11.414;2022-12-08T01:21:48;2.60;99.90
24814;DHT22;12904;50.088;11.414;2022-12-08T01:24:19;2.60;99.90
24814;DHT22;12904;50.088;11.414;2022-12-08T01:26:45;2.50;99.90
24814;DHT22;12904;50.088;11.414;2022-12-08T01:29:12;2.60;99.90
24814;DHT22;12904;50.088;11.414;2022-12-08T01:31:38;2.60;99.90
24814;DHT22;12904;50.088;11.414;2022-12-08T01:34:04;2.60;99.90
24814;DHT22;12904;50.088;11.414;2022-12-08T01:36:31;2.60;99.90
24814;DHT22;12904;50.088;11.414;2022-12-08T01:38:59;2.60;99.90
24814;DHT22;12904;50.088;11.414;2022-12-08T01:41:27;2.60;99.90
24814;DHT22;12904;50.088;11.414;2022-12-08T01:43:57;2.50;99.90
24814;DHT22;12904;50.088;11.414;2022-12-08T01:46:24;2.50;99.90
24814;DHT22;12904;50.088;11.414;2022-12-08T01:48:54;2.60;99.90
24814;DHT22;12904;50.088;11.414;2022-12-08T01:51:21;2.60;99.90
24814;DHT22;12904;50.088;11.414;2022-12-08T01:53:47;2.60;99.90
24814;DHT22;12904;50.088;11.414;2022-12-08T01:56:23;2.70;99.90
24814;DHT22;12904;50.088;11.414;2022-12-08T01:58:51;2.70;99.90
24814;DHT22;12904;50.088;11.414;2022-12-08T02:01:18;2.70;99.90
24814;DHT22;12904;50.088;11.414;2022-12-08T02:04:03;2.70;99.90
24814;DHT22;12904;50.088;11.414;2022-12-08T02:06:33;2.70;99.90
24814;DHT22;12904;50.088;11.414;2022-12-08T02:09:00;2.70;99.90
24814;DHT22;12904;50.088;11.414;2022-12-08T02:11:28;2.70;99.90
24814;DHT22;12904;50.088;11.414;2022-12-08T02:13:54;2.70;99.90
24814;DHT22;12904;50.088;11.414;2022-12-08T02:18:50;2.70;99.90
24814;DHT22;12904;50.088;11.414;2022-12-08T02:22:10;2.70;99.90
24814;DHT22;12904;50.088;11.414;2022-12-08T02:24:30;2.70;99.90
24814;DHT22;12904;50.088;11.414;2022-12-08T02:30:02;2.70;99.90
24814;DHT22;12904;50.088;11.414;2022-12-08T02:38:39;2.70;99.90
24814;DHT22;12904;50.088;11.414;2022-12-08T02:46:56;2.80;99.90
24814;DHT22;12904;50.088;11.414;2022-12-08T02:49:33;2.80;99.90
24814;DHT22;12904;50.088;11.414;2022-12-08T02:54:37;2.80;99.90
24814;DHT22;12904;50.088;11.414;2022-12-08T03:10:39;2.80;99.90
24814;DHT22;12904;50.088;11.414;2022-12-08T03:13:14;2.70;99.90
24814;DHT22;12904;50.088;11.414;2022-12-08T03:15:45;2.70;99.90
24814;DHT22;12904;50.088;11.414;2022-12-08T03:18:14;2.70;99.90
24814;DHT22;12904;50.088;11.414;2022-12-08T03:20:42;2.70;99.90
24814;DHT22;12904;50.088;11.414;2022-12-08T03:23:12;2.70;99.90
24814;DHT22;12904;50.088;11.414;2022-12-08T03:25:44;2.70;99.90
24814;DHT22;12904;50.088;11.414;2022-12-08T03:28:12;2.70;99.90
24814;DHT22;12904;50.088;11.414;2022-12-08T03:30:39;2.70;99.90
24814;DHT22;12904;50.088;11.414;2022-12-08T03:33:34;2.70;99.90
24814;DHT22;12904;50.088;11.414;2022-12-08T03:36:03;2.70;99.90
24814;DHT22;12904;50.088;11.414;2022-12-08T03:38:42;2.70;99.90
24814;DHT22;12904;50.088;11.414;2022-12-08T03:41:08;2.70;99.90
24814;DHT22;12904;50.088;11.414;2022-12-08T03:43:54;2.80;99.90
24814;DHT22;12904;50.088;11.414;2022-12-08T03:46:22;2.70;99.90
24814;DHT22;12904;50.088;11.414;2022-12-08T03:48:48;2.60;99.90
24814;DHT22;12904;50.088;11.414;2022-12-08T03:51:15;2.70;99.90
24814;DHT22;12904;50.088;11.414;2022-12-08T03:53:41;2.70;99.90
24814;DHT22;12904;50.088;11.414;2022-12-08T03:56:23;2.60;99.90
24814;DHT22;12904;50.088;11.414;2022-12-08T03:58:49;2.60;99.90
24814;DHT22;12904;50.088;11.414;2022-12-08T04:01:15;2.60;99.90
24814;DHT22;12904;50.088;11.414;2022-12-08T04:03:40;2.60;99.90
24814;DHT22;12904;50.088;11.414;2022-12-08T04:06:06;2.60;99.90
24814;DHT22;12904;50.088;11.414;2022-12-08T04:08:32;2.60;99.90
24814;DHT22;12904;50.088;11.414;2022-12-08T04:10:58;2.50;99.90
24814;DHT22;12904;50.088;11.414;2022-12-08T04:13:24;2.50;99.90
24814;DHT22;12904;50.088;11.414;2022-12-08T04:15:50;2.50;99.90
24814;DHT22;12904;50.088;11.414;2022-12-08T04:18:16;2.40;99.90
24814;DHT22;12904;50.088;11.414;2022-12-08T04:20:43;2.40;99.90
24814;DHT22;12904;50.088;11.414;2022-12-08T04:23:09;2.40;99.90
24814;DHT22;12904;50.088;11.414;2022-12-08T04:25:36;2.40;99.90
24814;DHT22;12904;50.088;11.414;2022-12-08T04:28:02;2.40;99.90
24814;DHT22;12904;50.088;11.414;2022-12-08T04:30:28;2.40;99.90
24814;DHT22;12904;50.088;11.414;2022-12-08T04:32:54;2.40;99.90
24814;DHT22;12904;50.088;11.414;2022-12-08T04:35:20;2.30;99.90
24814;DHT22;12904;50.088;11.414;2022-12-08T04:37:45;2.40;99.90
24814;DHT22;12904;50.088;11.414;2022-12-08T04:40:11;2.40;99.90
24814;DHT22;12904;50.088;11.414;2022-12-08T04:42:37;2.40;99.90
24814;DHT22;12904;50.088;11.414;2022-12-08T04:45:04;2.40;99.90
24814;DHT22;12904;50.088;11.414;2022-12-08T04:47:29;2.40;99.90
24814;DHT22;12904;50.088;11.414;2022-12-08T04:49:55;2.40;99.90
24814;DHT22;12904;50.088;11.414;2022-12-08T04:52:21;2.40;99.90
24814;DHT22;12904;50.088;11.414;2022-12-08T04:54:47;2.40;99.90
24814;DHT22;12904;50.088;11.414;2022-12-08T04:57:13;2.40;99.90
24814;DHT22;12904;50.088;11.414;2022-12-08T04:59:38;2.40;99.90
24814;DHT22;12904;50.088;11.414;2022-12-08T05:02:04;2.50;99.90
24814;DHT22;12904;50.088;11.414;2022-12-08T05:04:30;2.50;99.90
24814;DHT22;12904;50.088;11.414;2022-12-08T05:06:56;2.50;99.90
24814;DHT22;12904;50.088;11.414;2022-12-08T05:09:21;2.50;99.90
24814;DHT22;12904;50.088;11.414;2022-12-08T05:11:47;2.50;99.90
24814;DHT22;12904;50.088;11.414;2022-12-08T05:14:15;2.50;99.90
24814;DHT22;12904;50.088;11.414;2022-12-08T05:16:41;2.50;99.90
24814;DHT22;12904;50.088;11.414;2022-12-08T05:19:07;2.50;99.90
24814;DHT22;12904;50.088;11.414;2022-12-08T05:21:33;2.50;99.90
24814;DHT22;12904;50.088;11.414;2022-12-08T05:23:59;2.60;99.90
24814;DHT22;12904;50.088;11.414;2022-12-08T05:26:25;2.50;99.90
24814;DHT22;12904;50.088;11.414;2022-12-08T05:28:50;2.50;99.90
24814;DHT22;12904;50.088;11.414;2022-12-08T05:31:16;2.50;99.90
24814;DHT22;12904;50.088;11.414;2022-12-08T05:33:43;2.50;99.90
24814;DHT22;12904;50.088;11.414;2022-12-08T05:36:11;2.50;99.90
24814;DHT22;12904;50.088;11.414;2022-12-08T05:38:38;2.50;99.90
24814;DHT22;12904;50.088;11.414;2022-12-08T05:41:09;2.50;99.90
24814;DHT22;12904;50.088;11.414;2022-12-08T05:43:36;2.50;99.90
24814;DHT22;12904;50.088;11.414;2022-12-08T05:46:02;2.50;99.90
24814;DHT22;12904;50.088;11.414;2022-12-08T05:48:27;2.50;99.90
24814;DHT22;12904;50.088;11.414;2022-12-08T05:50:53;2.50;99.90
24814;DHT22;12904;50.088;11.414;2022-12-08T05:53:19;2.50;99.90
24814;DHT22;12904;50.088;11.414;2022-12-08T05:55:46;2.50;99.90
24814;DHT22;12904;50.088;11.414;2022-12-08T05:58:13;2.50;99.90
24814;DHT22;12904;50.088;11.414;2022-12-08T06:00:40;2.50;99.90
24814;DHT22;12904;50.088;11.414;2022-12-08T06:03:06;2.50;99.90
24814;DHT22;12904;50.088;11.414;2022-12-08T06:05:33;2.50;99.90
24814;DHT22;12904;50.088;11.414;2022-12-08T06:07:59;2.50;99.90
24814;DHT22;12904;50.088;11.414;2022-12-08T06:10:24;2.50;99.90
24814;DHT22;12904;50.088;11.414;2022-12-08T06:12:50;2.50;99.90
24814;DHT22;12904;50.088;11.414;2022-12-08T06:15:16;2.40;99.90
24814;DHT22;12904;50.088;11.414;2022-12-08T06:17:41;2.40;99.90
24814;DHT22;12904;50.088;11.414;2022-12-08T06:20:07;2.40;99.90
24814;DHT22;12904;50.088;11.414;2022-12-08T06:22:33;2.40;99.90
24814;DHT22;12904;50.088;11.414;2022-12-08T06:24:59;2.40;99.90
24814;DHT22;12904;50.088;11.414;2022-12-08T06:27:25;2.40;99.90
24814;DHT22;12904;50.088;11.414;2022-12-08T06:29:50;2.30;99.90
24814;DHT22;12904;50.088;11.414;2022-12-08T06:32:16;2.20;99.90
24814;DHT22;12904;50.088;11.414;2022-12-08T06:34:42;2.20;99.90
24814;DHT22;12904;50.088;11.414;2022-12-08T06:37:07;2.10;99.90
24814;DHT22;12904;50.088;11.414;2022-12-08T06:39:33;2.10;99.90
24814;DHT22;12904;50.088;11.414;2022-12-08T06:41:59;2.00;99.90
24814;DHT22;12904;50.088;11.414;2022-12-08T06:44:43;2.00;99.90
24814;DHT22;12904;50.088;11.414;2022-12-08T06:47:08;2.00;99.90
24814;DHT22;12904;50.088;11.414;2022-12-08T06:49:34;2.00;99.90
24814;DHT22;12904;50.088;11.414;2022-12-08T06:52:00;2.00;99.90
24814;DHT22;12904;50.088;11.414;2022-12-08T06:54:25;2.00;99.90
24814;DHT22;12904;50.088;11.414;2022-12-08T06:56:51;1.90;99.90
24814;DHT22;12904;50.088;11.414;2022-12-08T06:59:17;1.90;99.90
24814;DHT22;12904;50.088;11.414;2022-12-08T07:01:44;1.90;99.90
24814;DHT22;12904;50.088;11.414;2022-12-08T07:04:10;1.90;99.90
24814;DHT22;12904;50.088;11.414;2022-12-08T07:06:36;1.90;99.90
24814;DHT22;12904;50.088;11.414;2022-12-08T07:09:02;1.90;99.90
24814;DHT22;12904;50.088;11.414;2022-12-08T07:11:28;2.00;99.90
24814;DHT22;12904;50.088;11.414;2022-12-08T07:13:56;2.00;99.90
24814;DHT22;12904;50.088;11.414;2022-12-08T07:16:22;2.00;99.90
24814;DHT22;12904;50.088;11.414;2022-12-08T07:18:48;2.00;99.90
24814;DHT22;12904;50.088;11.414;2022-12-08T07:21:14;2.00;99.90
24814;DHT22;12904;50.088;11.414;2022-12-08T07:23:40;2.10;99.90
24814;DHT22;12904;50.088;11.414;2022-12-08T07:26:08;2.10;99.90
24814;DHT22;12904;50.088;11.414;2022-12-08T07:28:36;2.10;99.90
24814;DHT22;12904;50.088;11.414;2022-12-08T07:31:02;2.10;99.90
24814;DHT22;12904;50.088;11.414;2022-12-08T07:33:28;2.10;99.90
24814;DHT22;12904;50.088;11.414;2022-12-08T07:35:59;2.20;99.90
24814;DHT22;12904;50.088;11.414;2022-12-08T07:38:25;2.10;99.90
24814;DHT22;12904;50.088;11.414;2022-12-08T07:40:52;2.10;99.90
24814;DHT22;12904;50.088;11.414;2022-12-08T07:43:18;2.20;99.90
24814;DHT22;12904;50.088;11.414;2022-12-08T07:45:44;2.20;99.90
24814;DHT22;12904;50.088;11.414;2022-12-08T07:48:10;2.20;99.90
24814;DHT22;12904;50.088;11.414;2022-12-08T07:50:36;2.20;99.90
24814;DHT22;12904;50.088;11.414;2022-12-08T07:53:02;2.20;99.90
24814;DHT22;12904;50.088;11.414;2022-12-08T07:55:28;2.30;99.90
24814;DHT22;12904;50.088;11.414;2022-12-08T07:57:53;2.30;99.90
24814;DHT22;12904;50.088;11.414;2022-12-08T08:00:20;2.30;99.90
24814;DHT22;12904;50.088;11.414;2022-12-08T08:02:45;2.30;99.90
24814;DHT22;12904;50.088;11.414;2022-12-08T08:05:11;2.30;99.90
24814;DHT22;12904;50.088;11.414;2022-12-08T08:07:38;2.30;99.90
24814;DHT22;12904;50.088;11.414;2022-12-08T08:10:05;2.40;99.90
24814;DHT22;12904;50.088;11.414;2022-12-08T08:12:31;2.40;99.90
24814;DHT22;12904;50.088;11.414;2022-12-08T08:14:57;2.30;99.90
24814;DHT22;12904;50.088;11.414;2022-12-08T08:17:23;2.30;99.90
24814;DHT22;12904;50.088;11.414;2022-12-08T08:19:48;2.30;99.90
24814;DHT22;12904;50.088;11.414;2022-12-08T08:22:14;2.30;99.90
24814;DHT22;12904;50.088;11.414;2022-12-08T08:24:39;2.30;99.90
24814;DHT22;12904;50.088;11.414;2022-12-08T08:27:05;2.30;99.90
24814;DHT22;12904;50.088;11.414;2022-12-08T08:29:30;2.30;99.90
24814;DHT22;12904;50.088;11.414;2022-12-08T08:31:56;2.40;99.90
24814;DHT22;12904;50.088;11.414;2022-12-08T08:34:22;2.40;99.90
24814;DHT22;12904;50.088;11.414;2022-12-08T08:36:47;2.40;99.90
24814;DHT22;12904;50.088;11.414;2022-12-08T08:39:13;2.50;99.90
24814;DHT22;12904;50.088;11.414;2022-12-08T08:41:38;2.50;99.90
24814;DHT22;12904;50.088;11.414;2022-12-08T08:44:04;2.50;99.90
24814;DHT22;12904;50.088;11.414;2022-12-08T08:46:30;2.70;99.90
24814;DHT22;12904;50.088;11.414;2022-12-08T08:48:56;2.70;99.90
24814;DHT22;12904;50.088;11.414;2022-12-08T08:51:22;2.70;99.90
24814;DHT22;12904;50.088;11.414;2022-12-08T08:53:48;2.80;99.90
24814;DHT22;12904;50.088;11.414;2022-12-08T08:56:16;2.80;99.90
24814;DHT22;12904;50.088;11.414;2022-12-08T08:58:44;2.80;99.90
24814;DHT22;12904;50.088;11.414;2022-12-08T09:01:14;2.80;99.90
24814;DHT22;12904;50.088;11.414;2022-12-08T09:03:40;2.80;99.90
24814;DHT22;12904;50.088;11.414;2022-12-08T09:06:06;2.70;99.90
24814;DHT22;12904;50.088;11.414;2022-12-08T09:08:31;2.70;99.90
24814;DHT22;12904;50.088;11.414;2022-12-08T09:10:57;2.80;99.90
24814;DHT22;12904;50.088;11.414;2022-12-08T09:13:23;2.80;99.90
24814;DHT22;12904;50.088;11.414;2022-12-08T09:15:48;2.80;99.90
24814;DHT22;12904;50.088;11.414;2022-12-08T09:18:14;2.80;99.90
24814;DHT22;12904;50.088;11.414;2022-12-08T09:20:39;2.90;99.90
24814;DHT22;12904;50.088;11.414;2022-12-08T09:23:05;2.90;99.90
24814;DHT22;12904;50.088;11.414;2022-12-08T09:25:31;2.90;99.90
24814;DHT22;12904;50.088;11.414;2022-12-08T09:27:56;2.90;99.90
24814;DHT22;12904;50.088;11.414;2022-12-08T09:30:22;2.80;99.90
24814;DHT22;12904;50.088;11.414;2022-12-08T09:32:48;2.80;99.90
24814;DHT22;12904;50.088;11.414;2022-12-08T09:35:13;2.80;99.90
24814;DHT22;12904;50.088;11.414;2022-12-08T09:37:39;2.70;99.90
24814;DHT22;12904;50.088;11.414;2022-12-08T09:40:05;2.60;99.90
24814;DHT22;12904;50.088;11.414;2022-12-08T09:42:51;2.60;99.90
24814;DHT22;12904;50.088;11.414;2022-12-08T09:45:18;2.60;99.90
24814;DHT22;12904;50.088;11.414;2022-12-08T09:47:55;2.50;99.90
24814;DHT22;12904;50.088;11.414;2022-12-08T09:50:33;2.50;99.90
24814;DHT22;12904;50.088;11.414;2022-12-08T09:58:45;2.50;99.90
24814;DHT22;12904;50.088;11.414;2022-12-08T10:01:13;2.50;99.90
24814;DHT22;12904;50.088;11.414;2022-12-08T10:03:39;2.60;99.90
24814;DHT22;12904;50.088;11.414;2022-12-08T10:06:23;2.50;99.90
24814;DHT22;12904;50.088;11.414;2022-12-08T10:12:35;2.60;99.90
24814;DHT22;12904;50.088;11.414;2022-12-08T10:17:28;2.50;99.90
24814;DHT22;12904;50.088;11.414;2022-12-08T10:20:14;2.60;99.90
24814;DHT22;12904;50.088;11.414;2022-12-08T10:22:40;2.60;99.90
24814;DHT22;12904;50.088;11.414;2022-12-08T10:25:17;2.60;99.90
24814;DHT22;12904;50.088;11.414;2022-12-08T10:27:45;2.60;99.90
24814;DHT22;12904;50.088;11.414;2022-12-08T10:30:15;2.60;99.90
24814;DHT22;12904;50.088;11.414;2022-12-08T10:32:45;2.70;99.90
24814;DHT22;12904;50.088;11.414;2022-12-08T10:35:13;2.70;99.90
24814;DHT22;12904;50.088;11.414;2022-12-08T10:37:39;2.70;99.90
24814;DHT22;12904;50.088;11.414;2022-12-08T10:40:12;2.70;99.90
24814;DHT22;12904;50.088;11.414;2022-12-08T10:42:50;2.70;99.90
24814;DHT22;12904;50.088;11.414;2022-12-08T10:50:34;2.80;99.90
24814;DHT22;12904;50.088;11.414;2022-12-08T10:53:20;2.90;99.90
24814;DHT22;12904;50.088;11.414;2022-12-08T10:55:49;2.90;99.90
24814;DHT22;12904;50.088;11.414;2022-12-08T11:00:58;2.90;99.90
24814;DHT22;12904;50.088;11.414;2022-12-08T11:03:30;2.90;99.90
24814;DHT22;12904;50.088;11.414;2022-12-08T11:06:11;2.90;99.90
24814;DHT22;12904;50.088;11.414;2022-12-08T11:08:46;2.90;99.90
24814;DHT22;12904;50.088;11.414;2022-12-08T11:11:12;2.90;99.90
24814;DHT22;12904;50.088;11.414;2022-12-08T11:13:40;2.90;99.90
24814;DHT22;12904;50.088;11.414;2022-12-08T11:16:07;3.00;99.90
24814;DHT22;12904;50.088;11.414;2022-12-08T11:18:44;3.00;99.90
24814;DHT22;12904;50.088;11.414;2022-12-08T11:21:15;3.00;99.90
24814;DHT22;12904;50.088;11.414;2022-12-08T11:23:42;3.10;99.90
24814;DHT22;12904;50.088;11.414;2022-12-08T11:26:31;3.10;99.90
24814;DHT22;12904;50.088;11.414;2022-12-08T11:28:59;3.10;99.90
24814;DHT22;12904;50.088;11.414;2022-12-08T11:31:29;3.10;99.90
24814;DHT22;12904;50.088;11.414;2022-12-08T11:33:55;3.20;99.90
24814;DHT22;12904;50.088;11.414;2022-12-08T11:36:24;3.20;99.90
24814;DHT22;12904;50.088;11.414;2022-12-08T11:38:57;3.20;99.90
24814;DHT22;12904;50.088;11.414;2022-12-08T11:41:32;3.20;99.90
24814;DHT22;12904;50.088;11.414;2022-12-08T11:44:28;3.30;99.90
24814;DHT22;12904;50.088;11.414;2022-12-08T11:47:05;3.30;99.90
24814;DHT22;12904;50.088;11.414;2022-12-08T11:49:37;3.30;99.90
24814;DHT22;12904;50.088;11.414;2022-12-08T11:54:32;3.30;99.90
24814;DHT22;12904;50.088;11.414;2022-12-08T11:57:04;3.40;99.90
24814;DHT22;12904;50.088;11.414;2022-12-08T11:59:53;3.50;99.90
24814;DHT22;12904;50.088;11.414;2022-12-08T12:02:25;3.70;99.90
24814;DHT22;12904;50.088;11.414;2022-12-08T12:15:50;3.70;99.90
24814;DHT22;12904;50.088;11.414;2022-12-08T12:26:32;3.40;99.90
24814;DHT22;12904;50.088;11.414;2022-12-08T12:29:02;3.40;99.90
24814;DHT22;12904;50.088;11.414;2022-12-08T12:31:35;3.40;99.90
24814;DHT22;12904;50.088;11.414;2022-12-08T12:36:51;3.30;99.90
24814;DHT22;12904;50.088;11.414;2022-12-08T12:39:27;3.30;99.90
24814;DHT22;12904;50.088;11.414;2022-12-08T12:42:00;3.40;99.90
24814;DHT22;12904;50.088;11.414;2022-12-08T12:46:56;3.40;99.90
24814;DHT22;12904;50.088;11.414;2022-12-08T13:02:29;3.10;99.90
24814;DHT22;12904;50.088;11.414;2022-12-08T13:05:19;3.10;99.90
24814;DHT22;12904;50.088;11.414;2022-12-08T13:12:40;3.10;99.90
24814;DHT22;12904;50.088;11.414;2022-12-08T13:15:16;3.20;99.90
24814;DHT22;12904;50.088;11.414;2022-12-08T13:17:44;3.20;99.90
24814;DHT22;12904;50.088;11.414;2022-12-08T13:20:23;3.20;99.90
24814;DHT22;12904;50.088;11.414;2022-12-08T13:30:47;3.20;99.90
24814;DHT22;12904;50.088;11.414;2022-12-08T13:36:22;3.20;99.90
24814;DHT22;12904;50.088;11.414;2022-12-08T13:38:53;3.30;99.90
24814;DHT22;12904;50.088;11.414;2022-12-08T13:41:23;3.30;99.90
24814;DHT22;12904;50.088;11.414;2022-12-08T13:44:05;3.30;99.90
24814;DHT22;12904;50.088;11.414;2022-12-08T13:46:42;3.40;99.90
24814;DHT22;12904;50.088;11.414;2022-12-08T13:49:12;3.40;99.90
24814;DHT22;12904;50.088;11.414;2022-12-08T13:51:42;3.40;99.90
24814;DHT22;12904;50.088;11.414;2022-12-08T13:54:23;3.40;99.90
24814;DHT22;12904;50.088;11.414;2022-12-08T13:56:51;3.50;99.90
24814;DHT22;12904;50.088;11.414;2022-12-08T13:59:27;3.50;99.90
24814;DHT22;12904;50.088;11.414;2022-12-08T14:01:57;3.50;99.90
24814;DHT22;12904;50.088;11.414;2022-12-08T14:04:24;3.40;99.90
24814;DHT22;12904;50.088;11.414;2022-12-08T14:06:59;3.40;99.90
24814;DHT22;12904;50.088;11.414;2022-12-08T14:09:30;3.40;99.90
24814;DHT22;12904;50.088;11.414;2022-12-08T14:12:07;3.40;99.90
24814;DHT22;12904;50.088;11.414;2022-12-08T14:14:47;3.30;99.90
24814;DHT22;12904;50.088;11.414;2022-12-08T14:17:15;3.30;99.90
24814;DHT22;12904;50.088;11.414;2022-12-08T14:19:43;3.30;99.90
24814;DHT22;12904;50.088;11.414;2022-12-08T14:22:15;3.30;99.90
24814;DHT22;12904;50.088;11.414;2022-12-08T14:24:46;3.30;99.90
24814;DHT22;12904;50.088;11.414;2022-12-08T14:27:19;3.20;99.90
24814;DHT22;12904;50.088;11.414;2022-12-08T14:37:37;3.00;99.90
24814;DHT22;12904;50.088;11.414;2022-12-08T14:42:42;3.00;99.90
24814;DHT22;12904;50.088;11.414;2022-12-08T14:45:10;3.00;99.90
24814;DHT22;12904;50.088;11.414;2022-12-08T14:47:37;3.00;99.90
24814;DHT22;12904;50.088;11.414;2022-12-08T14:50:34;2.90;99.90
24814;DHT22;12904;50.088;11.414;2022-12-08T14:52:50;2.90;99.90
24814;DHT22;12904;50.088;11.414;2022-12-08T14:55:15;2.90;99.90
24814;DHT22;12904;50.088;11.414;2022-12-08T14:57:41;2.90;99.90
24814;DHT22;12904;50.088;11.414;2022-12-08T15:00:09;2.90;99.90
24814;DHT22;12904;50.088;11.414;2022-12-08T15:02:40;2.90;99.90
24814;DHT22;12904;50.088;11.414;2022-12-08T15:05:12;2.80;99.90
24814;DHT22;12904;50.088;11.414;2022-12-08T15:07:46;2.80;99.90
24814;DHT22;12904;50.088;11.414;2022-12-08T15:15:48;2.80;99.90
24814;DHT22;12904;50.088;11.414;2022-12-08T15:18:20;2.80;99.90
24814;DHT22;12904;50.088;11.414;2022-12-08T15:20:51;2.70;99.90
24814;DHT22;12904;50.088;11.414;2022-12-08T15:25:47;2.60;99.90
24814;DHT22;12904;50.088;11.414;2022-12-08T15:28:16;2.60;99.90
24814;DHT22;12904;50.088;11.414;2022-12-08T15:30:42;2.50;99.90
24814;DHT22;12904;50.088;11.414;2022-12-08T15:33:07;2.60;99.90
24814;DHT22;12904;50.088;11.414;2022-12-08T15:35:33;2.50;99.90
24814;DHT22;12904;50.088;11.414;2022-12-08T15:37:58;2.60;99.90
24814;DHT22;12904;50.088;11.414;2022-12-08T15:40:24;2.50;99.90
24814;DHT22;12904;50.088;11.414;2022-12-08T15:42:53;2.50;99.90
24814;DHT22;12904;50.088;11.414;2022-12-08T15:45:24;2.60;99.90
24814;DHT22;12904;50.088;11.414;2022-12-08T15:47:50;2.60;99.90
24814;DHT22;12904;50.088;11.414;2022-12-08T15:50:18;2.50;99.90
24814;DHT22;12904;50.088;11.414;2022-12-08T15:52:45;2.50;99.90
24814;DHT22;12904;50.088;11.414;2022-12-08T15:55:16;2.50;99.90
24814;DHT22;12904;50.088;11.414;2022-12-08T15:57:44;2.50;99.90
24814;DHT22;12904;50.088;11.414;2022-12-08T16:02:50;2.50;99.90
24814;DHT22;12904;50.088;11.414;2022-12-08T16:05:15;2.50;99.90
24814;DHT22;12904;50.088;11.414;2022-12-08T16:07:41;2.50;99.90
24814;DHT22;12904;50.088;11.414;2022-12-08T16:10:14;2.40;99.90
24814;DHT22;12904;50.088;11.414;2022-12-08T16:12:40;2.40;99.90
24814;DHT22;12904;50.088;11.414;2022-12-08T16:15:24;2.40;99.90
24814;DHT22;12904;50.088;11.414;2022-12-08T16:17:50;2.40;99.90
24814;DHT22;12904;50.088;11.414;2022-12-08T16:20:16;2.40;99.90
24814;DHT22;12904;50.088;11.414;2022-12-08T16:22:43;2.40;99.90
24814;DHT22;12904;50.088;11.414;2022-12-08T16:25:09;2.40;99.90
24814;DHT22;12904;50.088;11.414;2022-12-08T16:27:38;2.40;99.90
24814;DHT22;12904;50.088;11.414;2022-12-08T16:30:07;2.40;99.90
24814;DHT22;12904;50.088;11.414;2022-12-08T16:32:33;2.40;99.90
24814;DHT22;12904;50.088;11.414;2022-12-08T16:34:59;2.40;99.90
24814;DHT22;12904;50.088;11.414;2022-12-08T16:37:26;2.30;99.90
24814;DHT22;12904;50.088;11.414;2022-12-08T16:39:53;2.30;99.90
24814;DHT22;12904;50.088;11.414;2022-12-08T16:42:22;2.30;99.90
24814;DHT22;12904;50.088;11.414;2022-12-08T16:45:33;2.20;99.90
24814;DHT22;12904;50.088;11.414;2022-12-08T16:48:00;2.20;99.90
24814;DHT22;12904;50.088;11.414;2022-12-08T16:50:31;2.20;99.90
24814;DHT22;12904;50.088;11.414;2022-12-08T16:53:07;2.20;99.90
24814;DHT22;12904;50.088;11.414;2022-12-08T16:55:35;2.10;99.90
24814;DHT22;12904;50.088;11.414;2022-12-08T16:58:01;2.10;99.90
24814;DHT22;12904;50.088;11.414;2022-12-08T17:00:30;2.10;99.90
24814;DHT22;12904;50.088;11.414;2022-12-08T17:02:56;2.10;99.90
24814;DHT22;12904;50.088;11.414;2022-12-08T17:05:24;2.10;99.90
24814;DHT22;12904;50.088;11.414;2022-12-08T17:07:51;2.10;99.90
24814;DHT22;12904;50.088;11.414;2022-12-08T17:10:23;2.10;99.90
24814;DHT22;12904;50.088;11.414;2022-12-08T17:12:49;2.10;99.90
24814;DHT22;12904;50.088;11.414;2022-12-08T17:15:18;2.00;99.90
24814;DHT22;12904;50.088;11.414;2022-12-08T17:17:44;2.00;99.90
24814;DHT22;12904;50.088;11.414;2022-12-08T17:20:15;2.00;99.90
24814;DHT22;12904;50.088;11.414;2022-12-08T17:22:41;2.00;99.90
24814;DHT22;12904;50.088;11.414;2022-12-08T17:25:07;2.00;99.90
24814;DHT22;12904;50.088;11.414;2022-12-08T17:27:33;2.10;99.90
24814;DHT22;12904;50.088;11.414;2022-12-08T17:29:59;2.10;99.90
24814;DHT22;12904;50.088;11.414;2022-12-08T17:32:25;2.10;99.90
24814;DHT22;12904;50.088;11.414;2022-12-08T17:34:51;2.10;99.90
24814;DHT22;12904;50.088;11.414;2022-12-08T17:37:16;2.20;99.90
24814;DHT22;12904;50.088;11.414;2022-12-08T17:39:42;2.30;99.90
24814;DHT22;12904;50.088;11.414;2022-12-08T17:42:08;2.30;99.90
24814;DHT22;12904;50.088;11.414;2022-12-08T17:44:34;2.30;99.90
24814;DHT22;12904;50.088;11.414;2022-12-08T17:47:00;2.30;99.90
24814;DHT22;12904;50.088;11.414;2022-12-08T17:49:27;2.40;99.90